Terminal Aerodrome Forecast
Issued by NWS Northern Indiana

Home | Current Version | Previous Version | Text Only | Print | Product List | Glossary Off
Versions: 1 2 3 4 5 6 7 8 9 10 11 12 13 14 15 16 17 18 19 20 21 22 23

963
FTUS43 KIWX 192334
TAFFWA
TAF
KFWA 192334Z 2000/2024 30007KT P6SM SCT020 BKN040
      TEMPO 2000/2004 BKN020
     FM200800 32005KT 5SM BR BKN020
     FM201600 05005KT P6SM BKN025=

USA.gov is the U.S. government's official web portal to all federal, state and local government web resources and services.